sensor_id;sensor_type;location;lat;lon;timestamp;P1;durP1;ratioP1;P2;durP2;ratioP2
38123;SDS011;23934;47.998;9.832;2022-11-11T00:00:05;6.53;;;3.10;;
38123;SDS011;23934;47.998;9.832;2022-11-11T00:02:31;8.85;;;3.63;;
38123;SDS011;23934;47.998;9.832;2022-11-11T00:04:57;12.10;;;3.15;;
38123;SDS011;23934;47.998;9.832;2022-11-11T00:07:23;8.75;;;3.55;;
38123;SDS011;23934;47.998;9.832;2022-11-11T00:09:49;8.80;;;3.10;;
38123;SDS011;23934;47.998;9.832;2022-11-11T00:12:15;9.32;;;3.28;;
38123;SDS011;23934;47.998;9.832;2022-11-11T00:14:41;7.88;;;3.05;;
38123;SDS011;23934;47.998;9.832;2022-11-11T00:17:08;10.32;;;3.70;;
38123;SDS011;23934;47.998;9.832;2022-11-11T00:19:55;15.43;;;3.72;;
38123;SDS011;23934;47.998;9.832;2022-11-11T00:22:39;7.93;;;3.67;;
38123;SDS011;23934;47.998;9.832;2022-11-11T00:25:24;11.02;;;3.53;;
38123;SDS011;23934;47.998;9.832;2022-11-11T00:27:50;12.25;;;3.70;;
38123;SDS011;23934;47.998;9.832;2022-11-11T00:30:16;9.88;;;3.60;;
38123;SDS011;23934;47.998;9.832;2022-11-11T00:32:42;16.05;;;3.47;;
38123;SDS011;23934;47.998;9.832;2022-11-11T00:35:08;20.85;;;3.05;;
38123;SDS011;23934;47.998;9.832;2022-11-11T00:37:52;7.60;;;3.00;;
38123;SDS011;23934;47.998;9.832;2022-11-11T00:40:18;13.43;;;2.85;;
38123;SDS011;23934;47.998;9.832;2022-11-11T00:42:44;13.48;;;3.45;;
38123;SDS011;23934;47.998;9.832;2022-11-11T00:45:10;10.43;;;4.03;;
38123;SDS011;23934;47.998;9.832;2022-11-11T00:47:36;8.57;;;3.72;;
38123;SDS011;23934;47.998;9.832;2022-11-11T00:50:22;10.63;;;3.00;;
38123;SDS011;23934;47.998;9.832;2022-11-11T00:53:10;17.02;;;3.80;;
38123;SDS011;23934;47.998;9.832;2022-11-11T00:55:36;8.65;;;3.25;;
38123;SDS011;23934;47.998;9.832;2022-11-11T00:58:02;17.30;;;3.33;;
38123;SDS011;23934;47.998;9.832;2022-11-11T01:00:28;7.18;;;2.53;;
38123;SDS011;23934;47.998;9.832;2022-11-11T01:02:54;8.85;;;3.22;;
38123;SDS011;23934;47.998;9.832;2022-11-11T01:05:21;4.63;;;2.25;;
38123;SDS011;23934;47.998;9.832;2022-11-11T01:07:48;6.90;;;2.70;;
38123;SDS011;23934;47.998;9.832;2022-11-11T01:10:14;17.13;;;3.40;;
38123;SDS011;23934;47.998;9.832;2022-11-11T01:13:00;5.00;;;2.50;;
38123;SDS011;23934;47.998;9.832;2022-11-11T01:15:56;4.50;;;2.03;;
38123;SDS011;23934;47.998;9.832;2022-11-11T01:18:23;10.38;;;2.58;;
38123;SDS011;23934;47.998;9.832;2022-11-11T01:20:59;10.07;;;2.83;;
38123;SDS011;23934;47.998;9.832;2022-11-11T01:23:25;63.97;;;4.07;;
38123;SDS011;23934;47.998;9.832;2022-11-11T01:25:51;43.72;;;4.22;;
38123;SDS011;23934;47.998;9.832;2022-11-11T01:28:17;14.15;;;2.75;;
38123;SDS011;23934;47.998;9.832;2022-11-11T01:30:43;9.45;;;2.63;;
38123;SDS011;23934;47.998;9.832;2022-11-11T01:33:09;6.05;;;2.67;;
38123;SDS011;23934;47.998;9.832;2022-11-11T01:35:39;5.78;;;2.88;;
38123;SDS011;23934;47.998;9.832;2022-11-11T01:38:06;5.93;;;2.67;;
38123;SDS011;23934;47.998;9.832;2022-11-11T01:40:42;11.73;;;3.25;;
38123;SDS011;23934;47.998;9.832;2022-11-11T01:45:45;8.68;;;3.35;;
38123;SDS011;23934;47.998;9.832;2022-11-11T01:52:00;9.18;;;2.70;;
38123;SDS011;23934;47.998;9.832;2022-11-11T01:54:01;7.45;;;3.10;;
38123;SDS011;23934;47.998;9.832;2022-11-11T01:56:28;27.63;;;3.10;;
38123;SDS011;23934;47.998;9.832;2022-11-11T01:58:55;33.42;;;3.00;;
38123;SDS011;23934;47.998;9.832;2022-11-11T02:01:22;17.48;;;3.17;;
38123;SDS011;23934;47.998;9.832;2022-11-11T02:03:49;6.13;;;2.35;;
38123;SDS011;23934;47.998;9.832;2022-11-11T02:06:34;5.75;;;2.13;;
38123;SDS011;23934;47.998;9.832;2022-11-11T02:09:02;45.30;;;3.65;;
38123;SDS011;23934;47.998;9.832;2022-11-11T02:11:29;41.88;;;4.82;;
38123;SDS011;23934;47.998;9.832;2022-11-11T02:14:15;44.00;;;4.60;;
38123;SDS011;23934;47.998;9.832;2022-11-11T02:16:59;39.53;;;3.28;;
38123;SDS011;23934;47.998;9.832;2022-11-11T02:19:29;38.25;;;4.50;;
38123;SDS011;23934;47.998;9.832;2022-11-11T02:21:59;7.40;;;2.92;;
38123;SDS011;23934;47.998;9.832;2022-11-11T02:24:26;8.02;;;3.15;;
38123;SDS011;23934;47.998;9.832;2022-11-11T02:26:53;7.32;;;3.30;;
38123;SDS011;23934;47.998;9.832;2022-11-11T02:29:20;7.63;;;2.60;;
38123;SDS011;23934;47.998;9.832;2022-11-11T02:31:46;6.40;;;2.75;;
38123;SDS011;23934;47.998;9.832;2022-11-11T02:34:12;8.00;;;3.25;;
38123;SDS011;23934;47.998;9.832;2022-11-11T02:36:38;0.00;;;0.00;;
38123;SDS011;23934;47.998;9.832;2022-11-11T02:39:05;0.10;;;0.10;;
38123;SDS011;23934;47.998;9.832;2022-11-11T02:41:31;0.00;;;0.00;;
38123;SDS011;23934;47.998;9.832;2022-11-11T02:44:16;0.00;;;0.00;;
38123;SDS011;23934;47.998;9.832;2022-11-11T02:46:42;0.00;;;0.00;;
38123;SDS011;23934;47.998;9.832;2022-11-11T02:49:08;0.00;;;0.00;;
38123;SDS011;23934;47.998;9.832;2022-11-11T02:54:38;0.00;;;0.00;;
38123;SDS011;23934;47.998;9.832;2022-11-11T02:57:04;0.00;;;0.00;;
38123;SDS011;23934;47.998;9.832;2022-11-11T02:59:37;0.00;;;0.00;;
38123;SDS011;23934;47.998;9.832;2022-11-11T03:02:03;0.52;;;0.52;;
38123;SDS011;23934;47.998;9.832;2022-11-11T03:04:29;1.35;;;1.25;;
38123;SDS011;23934;47.998;9.832;2022-11-11T03:06:55;1.65;;;0.40;;
38123;SDS011;23934;47.998;9.832;2022-11-11T03:09:21;4.30;;;1.17;;
38123;SDS011;23934;47.998;9.832;2022-11-11T03:11:47;0.00;;;0.00;;
38123;SDS011;23934;47.998;9.832;2022-11-11T03:14:13;0.00;;;0.00;;
38123;SDS011;23934;47.998;9.832;2022-11-11T03:16:39;0.00;;;0.00;;
38123;SDS011;23934;47.998;9.832;2022-11-11T03:19:24;0.00;;;0.00;;
38123;SDS011;23934;47.998;9.832;2022-11-11T03:21:49;0.00;;;0.00;;
38123;SDS011;23934;47.998;9.832;2022-11-11T03:24:15;0.00;;;0.00;;
38123;SDS011;23934;47.998;9.832;2022-11-11T03:26:41;4.47;;;3.00;;
38123;SDS011;23934;47.998;9.832;2022-11-11T03:29:07;0.00;;;0.00;;
38123;SDS011;23934;47.998;9.832;2022-11-11T03:31:33;1.35;;;1.02;;
38123;SDS011;23934;47.998;9.832;2022-11-11T03:34:01;0.32;;;0.32;;
38123;SDS011;23934;47.998;9.832;2022-11-11T03:36:45;0.00;;;0.00;;
38123;SDS011;23934;47.998;9.832;2022-11-11T03:39:29;0.00;;;0.00;;
38123;SDS011;23934;47.998;9.832;2022-11-11T03:41:56;0.00;;;0.00;;
38123;SDS011;23934;47.998;9.832;2022-11-11T03:44:22;0.00;;;0.00;;
38123;SDS011;23934;47.998;9.832;2022-11-11T03:46:48;0.00;;;0.00;;
38123;SDS011;23934;47.998;9.832;2022-11-11T03:49:14;0.10;;;0.10;;
38123;SDS011;23934;47.998;9.832;2022-11-11T03:51:40;0.10;;;0.10;;
38123;SDS011;23934;47.998;9.832;2022-11-11T03:54:06;0.00;;;0.00;;
38123;SDS011;23934;47.998;9.832;2022-11-11T03:56:32;0.00;;;0.00;;
38123;SDS011;23934;47.998;9.832;2022-11-11T03:58:58;0.00;;;0.00;;
38123;SDS011;23934;47.998;9.832;2022-11-11T04:01:23;8.48;;;3.20;;
38123;SDS011;23934;47.998;9.832;2022-11-11T04:04:08;0.00;;;0.00;;
38123;SDS011;23934;47.998;9.832;2022-11-11T04:06:53;0.00;;;0.00;;
38123;SDS011;23934;47.998;9.832;2022-11-11T04:09:37;0.00;;;0.00;;
38123;SDS011;23934;47.998;9.832;2022-11-11T04:12:22;0.70;;;0.65;;
38123;SDS011;23934;47.998;9.832;2022-11-11T04:14:48;0.00;;;0.00;;
38123;SDS011;23934;47.998;9.832;2022-11-11T04:17:33;0.00;;;0.00;;
38123;SDS011;23934;47.998;9.832;2022-11-11T04:19:58;0.00;;;0.00;;
38123;SDS011;23934;47.998;9.832;2022-11-11T04:22:43;0.00;;;0.00;;
38123;SDS011;23934;47.998;9.832;2022-11-11T04:25:09;0.00;;;0.00;;
38123;SDS011;23934;47.998;9.832;2022-11-11T04:27:57;0.20;;;0.17;;
38123;SDS011;23934;47.998;9.832;2022-11-11T04:30:41;0.00;;;0.00;;
38123;SDS011;23934;47.998;9.832;2022-11-11T04:33:08;0.00;;;0.00;;
38123;SDS011;23934;47.998;9.832;2022-11-11T04:35:34;0.10;;;0.10;;
38123;SDS011;23934;47.998;9.832;2022-11-11T04:38:00;0.20;;;0.20;;
38123;SDS011;23934;47.998;9.832;2022-11-11T04:40:44;0.00;;;0.00;;
38123;SDS011;23934;47.998;9.832;2022-11-11T04:43:29;0.00;;;0.00;;
38123;SDS011;23934;47.998;9.832;2022-11-11T04:45:58;0.00;;;0.00;;
38123;SDS011;23934;47.998;9.832;2022-11-11T04:48:24;0.45;;;0.30;;
38123;SDS011;23934;47.998;9.832;2022-11-11T04:50:50;0.00;;;0.00;;
38123;SDS011;23934;47.998;9.832;2022-11-11T04:53:16;0.10;;;0.10;;
38123;SDS011;23934;47.998;9.832;2022-11-11T04:55:42;0.00;;;0.00;;
38123;SDS011;23934;47.998;9.832;2022-11-11T04:58:29;0.08;;;0.08;;
38123;SDS011;23934;47.998;9.832;2022-11-11T05:00:55;0.00;;;0.00;;
38123;SDS011;23934;47.998;9.832;2022-11-11T05:03:21;0.00;;;0.00;;
38123;SDS011;23934;47.998;9.832;2022-11-11T05:05:53;0.10;;;0.10;;
38123;SDS011;23934;47.998;9.832;2022-11-11T05:08:55;0.98;;;0.80;;
38123;SDS011;23934;47.998;9.832;2022-11-11T05:11:28;0.10;;;0.10;;
38123;SDS011;23934;47.998;9.832;2022-11-11T05:13:55;0.00;;;0.00;;
38123;SDS011;23934;47.998;9.832;2022-11-11T05:16:41;0.38;;;0.38;;
38123;SDS011;23934;47.998;9.832;2022-11-11T05:19:26;1.55;;;1.45;;
38123;SDS011;23934;47.998;9.832;2022-11-11T05:22:22;1.13;;;1.08;;
38123;SDS011;23934;47.998;9.832;2022-11-11T05:24:48;0.00;;;0.00;;
38123;SDS011;23934;47.998;9.832;2022-11-11T05:27:34;0.00;;;0.00;;
38123;SDS011;23934;47.998;9.832;2022-11-11T05:30:00;0.00;;;0.00;;
38123;SDS011;23934;47.998;9.832;2022-11-11T05:32:26;0.00;;;0.00;;
38123;SDS011;23934;47.998;9.832;2022-11-11T05:34:52;0.25;;;0.25;;
38123;SDS011;23934;47.998;9.832;2022-11-11T05:37:18;0.00;;;0.00;;
38123;SDS011;23934;47.998;9.832;2022-11-11T05:39:44;0.10;;;0.10;;
38123;SDS011;23934;47.998;9.832;2022-11-11T05:42:10;0.00;;;0.00;;
38123;SDS011;23934;47.998;9.832;2022-11-11T05:44:36;0.00;;;0.00;;
38123;SDS011;23934;47.998;9.832;2022-11-11T05:47:02;0.00;;;0.00;;
38123;SDS011;23934;47.998;9.832;2022-11-11T05:49:28;0.03;;;0.03;;
38123;SDS011;23934;47.998;9.832;2022-11-11T05:51:54;0.00;;;0.00;;
38123;SDS011;23934;47.998;9.832;2022-11-11T05:54:21;2.08;;;1.90;;
38123;SDS011;23934;47.998;9.832;2022-11-11T05:56:47;0.00;;;0.00;;
38123;SDS011;23934;47.998;9.832;2022-11-11T05:59:13;0.10;;;0.10;;
38123;SDS011;23934;47.998;9.832;2022-11-11T06:01:39;0.00;;;0.00;;
38123;SDS011;23934;47.998;9.832;2022-11-11T06:04:05;0.00;;;0.00;;
38123;SDS011;23934;47.998;9.832;2022-11-11T06:06:32;0.00;;;0.00;;
38123;SDS011;23934;47.998;9.832;2022-11-11T06:08:58;1.85;;;1.08;;
38123;SDS011;23934;47.998;9.832;2022-11-11T06:11:24;0.10;;;0.10;;
38123;SDS011;23934;47.998;9.832;2022-11-11T06:13:51;0.00;;;0.00;;
38123;SDS011;23934;47.998;9.832;2022-11-11T06:16:17;0.00;;;0.00;;
38123;SDS011;23934;47.998;9.832;2022-11-11T06:18:43;0.22;;;0.22;;
38123;SDS011;23934;47.998;9.832;2022-11-11T06:21:09;2.92;;;2.72;;
38123;SDS011;23934;47.998;9.832;2022-11-11T06:23:36;6.60;;;2.30;;
38123;SDS011;23934;47.998;9.832;2022-11-11T06:26:03;0.00;;;0.00;;
38123;SDS011;23934;47.998;9.832;2022-11-11T06:31:11;0.00;;;0.00;;
38123;SDS011;23934;47.998;9.832;2022-11-11T06:33:37;0.00;;;0.00;;
38123;SDS011;23934;47.998;9.832;2022-11-11T06:36:04;0.90;;;0.85;;
38123;SDS011;23934;47.998;9.832;2022-11-11T06:38:30;0.10;;;0.10;;
38123;SDS011;23934;47.998;9.832;2022-11-11T06:40:56;0.80;;;0.60;;
38123;SDS011;23934;47.998;9.832;2022-11-11T06:43:22;0.30;;;0.30;;
38123;SDS011;23934;47.998;9.832;2022-11-11T06:45:53;0.20;;;0.20;;
38123;SDS011;23934;47.998;9.832;2022-11-11T06:48:19;0.00;;;0.00;;
38123;SDS011;23934;47.998;9.832;2022-11-11T06:50:46;0.85;;;0.85;;
38123;SDS011;23934;47.998;9.832;2022-11-11T06:53:12;0.08;;;0.08;;
38123;SDS011;23934;47.998;9.832;2022-11-11T06:55:39;1.65;;;1.15;;
38123;SDS011;23934;47.998;9.832;2022-11-11T07:00:34;0.00;;;0.00;;
38123;SDS011;23934;47.998;9.832;2022-11-11T07:03:01;0.00;;;0.00;;
38123;SDS011;23934;47.998;9.832;2022-11-11T07:05:27;1.35;;;0.90;;
38123;SDS011;23934;47.998;9.832;2022-11-11T07:07:53;0.22;;;0.22;;
38123;SDS011;23934;47.998;9.832;2022-11-11T07:10:19;0.00;;;0.00;;
38123;SDS011;23934;47.998;9.832;2022-11-11T07:12:45;0.93;;;0.93;;
38123;SDS011;23934;47.998;9.832;2022-11-11T07:15:11;0.00;;;0.00;;
38123;SDS011;23934;47.998;9.832;2022-11-11T07:17:37;0.00;;;0.00;;
38123;SDS011;23934;47.998;9.832;2022-11-11T07:20:03;0.20;;;0.20;;
38123;SDS011;23934;47.998;9.832;2022-11-11T07:22:30;0.00;;;0.00;;
38123;SDS011;23934;47.998;9.832;2022-11-11T07:24:56;0.00;;;0.00;;
38123;SDS011;23934;47.998;9.832;2022-11-11T07:27:28;0.30;;;0.30;;
38123;SDS011;23934;47.998;9.832;2022-11-11T07:29:54;0.00;;;0.00;;
38123;SDS011;23934;47.998;9.832;2022-11-11T07:32:20;0.00;;;0.00;;
38123;SDS011;23934;47.998;9.832;2022-11-11T07:34:46;0.00;;;0.00;;
38123;SDS011;23934;47.998;9.832;2022-11-11T07:37:14;0.28;;;0.28;;
38123;SDS011;23934;47.998;9.832;2022-11-11T07:39:40;0.43;;;0.43;;
38123;SDS011;23934;47.998;9.832;2022-11-11T07:42:06;0.28;;;0.28;;
38123;SDS011;23934;47.998;9.832;2022-11-11T07:44:32;2.92;;;1.20;;
38123;SDS011;23934;47.998;9.832;2022-11-11T07:46:58;0.25;;;0.25;;
38123;SDS011;23934;47.998;9.832;2022-11-11T07:49:24;0.00;;;0.00;;
38123;SDS011;23934;47.998;9.832;2022-11-11T07:51:50;0.30;;;0.20;;
38123;SDS011;23934;47.998;9.832;2022-11-11T07:54:16;0.98;;;0.47;;
38123;SDS011;23934;47.998;9.832;2022-11-11T07:56:42;0.10;;;0.10;;
38123;SDS011;23934;47.998;9.832;2022-11-11T07:59:08;0.20;;;0.20;;
38123;SDS011;23934;47.998;9.832;2022-11-11T08:01:34;0.20;;;0.20;;
38123;SDS011;23934;47.998;9.832;2022-11-11T08:03:59;0.82;;;0.55;;
38123;SDS011;23934;47.998;9.832;2022-11-11T08:06:25;0.00;;;0.00;;
38123;SDS011;23934;47.998;9.832;2022-11-11T08:08:52;1.05;;;0.57;;
38123;SDS011;23934;47.998;9.832;2022-11-11T08:11:18;0.17;;;0.17;;
38123;SDS011;23934;47.998;9.832;2022-11-11T08:14:04;2.55;;;0.88;;
38123;SDS011;23934;47.998;9.832;2022-11-11T08:16:30;0.10;;;0.10;;
38123;SDS011;23934;47.998;9.832;2022-11-11T08:18:56;0.68;;;0.68;;
38123;SDS011;23934;47.998;9.832;2022-11-11T08:21:22;0.50;;;0.50;;
38123;SDS011;23934;47.998;9.832;2022-11-11T08:23:49;0.00;;;0.00;;
38123;SDS011;23934;47.998;9.832;2022-11-11T08:26:16;0.98;;;0.45;;
38123;SDS011;23934;47.998;9.832;2022-11-11T08:28:42;0.68;;;0.68;;
38123;SDS011;23934;47.998;9.832;2022-11-11T08:31:08;0.30;;;0.30;;
38123;SDS011;23934;47.998;9.832;2022-11-11T08:33:35;0.32;;;0.32;;
38123;SDS011;23934;47.998;9.832;2022-11-11T08:36:01;0.05;;;0.05;;
38123;SDS011;23934;47.998;9.832;2022-11-11T08:38:27;0.00;;;0.00;;
38123;SDS011;23934;47.998;9.832;2022-11-11T08:40:54;2.20;;;1.08;;
38123;SDS011;23934;47.998;9.832;2022-11-11T08:43:20;0.10;;;0.10;;
38123;SDS011;23934;47.998;9.832;2022-11-11T08:45:47;0.00;;;0.00;;
38123;SDS011;23934;47.998;9.832;2022-11-11T08:48:16;0.65;;;0.65;;
38123;SDS011;23934;47.998;9.832;2022-11-11T08:50:42;0.13;;;0.13;;
38123;SDS011;23934;47.998;9.832;2022-11-11T08:53:08;0.00;;;0.00;;
38123;SDS011;23934;47.998;9.832;2022-11-11T08:55:35;0.28;;;0.25;;
38123;SDS011;23934;47.998;9.832;2022-11-11T08:58:02;0.52;;;0.52;;
38123;SDS011;23934;47.998;9.832;2022-11-11T09:00:29;0.00;;;0.00;;
38123;SDS011;23934;47.998;9.832;2022-11-11T09:02:59;0.80;;;0.80;;
38123;SDS011;23934;47.998;9.832;2022-11-11T09:05:25;0.88;;;0.88;;
38123;SDS011;23934;47.998;9.832;2022-11-11T09:07:51;0.32;;;0.32;;
38123;SDS011;23934;47.998;9.832;2022-11-11T09:10:17;0.00;;;0.00;;
38123;SDS011;23934;47.998;9.832;2022-11-11T09:12:43;0.25;;;0.13;;
38123;SDS011;23934;47.998;9.832;2022-11-11T09:15:09;2.38;;;2.17;;
38123;SDS011;23934;47.998;9.832;2022-11-11T09:17:35;0.57;;;0.57;;
38123;SDS011;23934;47.998;9.832;2022-11-11T09:20:01;18.35;;;5.93;;
38123;SDS011;23934;47.998;9.832;2022-11-11T09:22:27;0.50;;;0.50;;
38123;SDS011;23934;47.998;9.832;2022-11-11T09:24:53;3.78;;;3.45;;
38123;SDS011;23934;47.998;9.832;2022-11-11T09:27:20;5.68;;;2.78;;
38123;SDS011;23934;47.998;9.832;2022-11-11T09:29:46;2.33;;;1.90;;
38123;SDS011;23934;47.998;9.832;2022-11-11T09:32:12;0.20;;;0.20;;
38123;SDS011;23934;47.998;9.832;2022-11-11T09:34:38;0.13;;;0.13;;
38123;SDS011;23934;47.998;9.832;2022-11-11T09:37:03;1.02;;;0.95;;
38123;SDS011;23934;47.998;9.832;2022-11-11T09:39:29;2.03;;;0.82;;
38123;SDS011;23934;47.998;9.832;2022-11-11T09:42:02;1.30;;;1.20;;
38123;SDS011;23934;47.998;9.832;2022-11-11T09:47:23;3.70;;;1.33;;
38123;SDS011;23934;47.998;9.832;2022-11-11T09:50:02;0.28;;;0.25;;
38123;SDS011;23934;47.998;9.832;2022-11-11T09:52:30;1.90;;;1.80;;
38123;SDS011;23934;47.998;9.832;2022-11-11T09:54:58;0.22;;;0.20;;
38123;SDS011;23934;47.998;9.832;2022-11-11T10:00:02;0.05;;;0.05;;
38123;SDS011;23934;47.998;9.832;2022-11-11T10:05:26;0.17;;;0.17;;
38123;SDS011;23934;47.998;9.832;2022-11-11T10:08:12;0.05;;;0.05;;
38123;SDS011;23934;47.998;9.832;2022-11-11T10:10:44;0.00;;;0.00;;
38123;SDS011;23934;47.998;9.832;2022-11-11T10:13:20;0.30;;;0.30;;
38123;SDS011;23934;47.998;9.832;2022-11-11T10:15:56;0.65;;;0.65;;
38123;SDS011;23934;47.998;9.832;2022-11-11T10:20:55;0.65;;;0.65;;
38123;SDS011;23934;47.998;9.832;2022-11-11T10:23:25;1.15;;;1.13;;
38123;SDS011;23934;47.998;9.832;2022-11-11T10:25:55;0.00;;;0.00;;
38123;SDS011;23934;47.998;9.832;2022-11-11T10:28:23;1.10;;;1.10;;
38123;SDS011;23934;47.998;9.832;2022-11-11T10:30:51;0.93;;;0.93;;
38123;SDS011;23934;47.998;9.832;2022-11-11T10:41:04;1.08;;;0.63;;
38123;SDS011;23934;47.998;9.832;2022-11-11T10:43:34;0.57;;;0.57;;
38123;SDS011;23934;47.998;9.832;2022-11-11T10:46:03;1.15;;;1.08;;
38123;SDS011;23934;47.998;9.832;2022-11-11T10:48:34;1.55;;;1.45;;
38123;SDS011;23934;47.998;9.832;2022-11-11T10:51:02;0.40;;;0.40;;
38123;SDS011;23934;47.998;9.832;2022-11-11T10:53:43;2.33;;;2.17;;
38123;SDS011;23934;47.998;9.832;2022-11-11T10:56:21;0.82;;;0.82;;
38123;SDS011;23934;47.998;9.832;2022-11-11T10:58:55;25.70;;;5.00;;
38123;SDS011;23934;47.998;9.832;2022-11-11T11:01:40;0.45;;;0.45;;
38123;SDS011;23934;47.998;9.832;2022-11-11T11:04:11;0.50;;;0.50;;
38123;SDS011;23934;47.998;9.832;2022-11-11T11:06:41;0.40;;;0.40;;
38123;SDS011;23934;47.998;9.832;2022-11-11T11:09:16;0.32;;;0.32;;
38123;SDS011;23934;47.998;9.832;2022-11-11T11:11:47;2.65;;;1.27;;
38123;SDS011;23934;47.998;9.832;2022-11-11T11:14:16;0.20;;;0.20;;
38123;SDS011;23934;47.998;9.832;2022-11-11T11:16:51;1.38;;;1.17;;
38123;SDS011;23934;47.998;9.832;2022-11-11T11:19:23;0.20;;;0.20;;
38123;SDS011;23934;47.998;9.832;2022-11-11T11:22:00;0.93;;;0.80;;
38123;SDS011;23934;47.998;9.832;2022-11-11T11:24:27;0.22;;;0.22;;
38123;SDS011;23934;47.998;9.832;2022-11-11T11:26:54;3.03;;;2.60;;
38123;SDS011;23934;47.998;9.832;2022-11-11T11:29:24;2.50;;;2.30;;
38123;SDS011;23934;47.998;9.832;2022-11-11T11:31:51;0.08;;;0.08;;
38123;SDS011;23934;47.998;9.832;2022-11-11T11:34:17;0.08;;;0.08;;
38123;SDS011;23934;47.998;9.832;2022-11-11T11:36:43;5.82;;;1.85;;
38123;SDS011;23934;47.998;9.832;2022-11-11T11:39:09;0.30;;;0.30;;
38123;SDS011;23934;47.998;9.832;2022-11-11T11:41:44;0.10;;;0.10;;
38123;SDS011;23934;47.998;9.832;2022-11-11T11:44:25;3.65;;;1.75;;
38123;SDS011;23934;47.998;9.832;2022-11-11T11:46:53;0.35;;;0.35;;
38123;SDS011;23934;47.998;9.832;2022-11-11T11:51:51;2.15;;;2.00;;
38123;SDS011;23934;47.998;9.832;2022-11-11T11:57:13;0.20;;;0.20;;
38123;SDS011;23934;47.998;9.832;2022-11-11T11:59:48;0.75;;;0.75;;
38123;SDS011;23934;47.998;9.832;2022-11-11T12:04:45;0.13;;;0.13;;
38123;SDS011;23934;47.998;9.832;2022-11-11T12:07:20;0.15;;;0.15;;
38123;SDS011;23934;47.998;9.832;2022-11-11T12:25:11;10.63;;;2.90;;
38123;SDS011;23934;47.998;9.832;2022-11-11T12:30:22;2.03;;;1.00;;
38123;SDS011;23934;47.998;9.832;2022-11-11T12:33:41;0.13;;;0.13;;
38123;SDS011;23934;47.998;9.832;2022-11-11T12:43:12;0.43;;;0.43;;
38123;SDS011;23934;47.998;9.832;2022-11-11T12:45:45;0.00;;;0.00;;
38123;SDS011;23934;47.998;9.832;2022-11-11T12:48:23;0.38;;;0.38;;
38123;SDS011;23934;47.998;9.832;2022-11-11T12:53:46;4.38;;;2.75;;
38123;SDS011;23934;47.998;9.832;2022-11-11T12:59:04;0.68;;;0.68;;
38123;SDS011;23934;47.998;9.832;2022-11-11T13:14:53;1.00;;;1.00;;
38123;SDS011;23934;47.998;9.832;2022-11-11T13:17:20;0.73;;;0.73;;
38123;SDS011;23934;47.998;9.832;2022-11-11T13:20:24;0.77;;;0.77;;
38123;SDS011;23934;47.998;9.832;2022-11-11T13:22:39;0.10;;;0.10;;
38123;SDS011;23934;47.998;9.832;2022-11-11T13:25:05;3.60;;;1.65;;
38123;SDS011;23934;47.998;9.832;2022-11-11T13:32:43;0.63;;;0.63;;
38123;SDS011;23934;47.998;9.832;2022-11-11T13:35:54;0.20;;;0.20;;
38123;SDS011;23934;47.998;9.832;2022-11-11T13:38:01;3.60;;;3.30;;
38123;SDS011;23934;47.998;9.832;2022-11-11T13:40:39;0.60;;;0.60;;
38123;SDS011;23934;47.998;9.832;2022-11-11T13:43:19;0.88;;;0.65;;
38123;SDS011;23934;47.998;9.832;2022-11-11T13:45:53;1.10;;;1.10;;
38123;SDS011;23934;47.998;9.832;2022-11-11T13:48:21;0.75;;;0.75;;
38123;SDS011;23934;47.998;9.832;2022-11-11T13:50:49;1.95;;;1.27;;
38123;SDS011;23934;47.998;9.832;2022-11-11T13:53:47;1.75;;;1.67;;
38123;SDS011;23934;47.998;9.832;2022-11-11T13:56:07;0.28;;;0.28;;
38123;SDS011;23934;47.998;9.832;2022-11-11T13:58:35;1.17;;;1.08;;
38123;SDS011;23934;47.998;9.832;2022-11-11T14:01:02;0.20;;;0.20;;
38123;SDS011;23934;47.998;9.832;2022-11-11T14:03:57;0.55;;;0.55;;
38123;SDS011;23934;47.998;9.832;2022-11-11T14:13:49;0.68;;;0.68;;
38123;SDS011;23934;47.998;9.832;2022-11-11T14:21:42;2.63;;;0.77;;
38123;SDS011;23934;47.998;9.832;2022-11-11T14:24:08;0.20;;;0.20;;
38123;SDS011;23934;47.998;9.832;2022-11-11T14:26:35;0.43;;;0.43;;
38123;SDS011;23934;47.998;9.832;2022-11-11T14:29:02;1.40;;;1.30;;
38123;SDS011;23934;47.998;9.832;2022-11-11T14:31:41;1.45;;;1.08;;
38123;SDS011;23934;47.998;9.832;2022-11-11T14:36:38;1.15;;;1.10;;
38123;SDS011;23934;47.998;9.832;2022-11-11T14:41:50;0.20;;;0.20;;
38123;SDS011;23934;47.998;9.832;2022-11-11T14:44:38;0.65;;;0.65;;
38123;SDS011;23934;47.998;9.832;2022-11-11T14:49:53;0.00;;;0.00;;
38123;SDS011;23934;47.998;9.832;2022-11-11T14:52:22;0.68;;;0.68;;
38123;SDS011;23934;47.998;9.832;2022-11-11T15:00:09;0.00;;;0.00;;
38123;SDS011;23934;47.998;9.832;2022-11-11T15:02:37;3.08;;;1.33;;
38123;SDS011;23934;47.998;9.832;2022-11-11T15:05:06;1.60;;;1.20;;
38123;SDS011;23934;47.998;9.832;2022-11-11T15:12:56;1.75;;;1.08;;
38123;SDS011;23934;47.998;9.832;2022-11-11T15:15:45;1.13;;;1.10;;
38123;SDS011;23934;47.998;9.832;2022-11-11T15:18:18;0.60;;;0.60;;
38123;SDS011;23934;47.998;9.832;2022-11-11T15:23:26;1.10;;;1.00;;
38123;SDS011;23934;47.998;9.832;2022-11-11T15:38:45;0.25;;;0.25;;
38123;SDS011;23934;47.998;9.832;2022-11-11T15:41:27;4.22;;;0.88;;
38123;SDS011;23934;47.998;9.832;2022-11-11T15:43:56;4.38;;;2.75;;
38123;SDS011;23934;47.998;9.832;2022-11-11T15:46:29;2.10;;;2.00;;
38123;SDS011;23934;47.998;9.832;2022-11-11T15:48:55;7.75;;;1.90;;
38123;SDS011;23934;47.998;9.832;2022-11-11T15:53:47;0.05;;;0.05;;
38123;SDS011;23934;47.998;9.832;2022-11-11T15:56:32;0.30;;;0.30;;
38123;SDS011;23934;47.998;9.832;2022-11-11T15:59:14;1.00;;;1.00;;
38123;SDS011;23934;47.998;9.832;2022-11-11T16:01:40;1.45;;;0.65;;
38123;SDS011;23934;47.998;9.832;2022-11-11T16:04:10;0.25;;;0.25;;
38123;SDS011;23934;47.998;9.832;2022-11-11T16:06:40;0.57;;;0.57;;
38123;SDS011;23934;47.998;9.832;2022-11-11T16:09:06;0.28;;;0.28;;
38123;SDS011;23934;47.998;9.832;2022-11-11T16:11:32;0.75;;;0.75;;
38123;SDS011;23934;47.998;9.832;2022-11-11T16:13:59;0.30;;;0.30;;
38123;SDS011;23934;47.998;9.832;2022-11-11T16:16:30;1.05;;;1.00;;
38123;SDS011;23934;47.998;9.832;2022-11-11T16:19:01;0.00;;;0.00;;
38123;SDS011;23934;47.998;9.832;2022-11-11T16:23:54;2.78;;;1.17;;
38123;SDS011;23934;47.998;9.832;2022-11-11T16:26:20;3.03;;;2.72;;
38123;SDS011;23934;47.998;9.832;2022-11-11T16:28:47;0.35;;;0.35;;
38123;SDS011;23934;47.998;9.832;2022-11-11T16:33:58;0.10;;;0.10;;
38123;SDS011;23934;47.998;9.832;2022-11-11T16:36:25;0.47;;;0.47;;
38123;SDS011;23934;47.998;9.832;2022-11-11T16:38:51;0.82;;;0.77;;
38123;SDS011;23934;47.998;9.832;2022-11-11T16:41:29;0.52;;;0.52;;
38123;SDS011;23934;47.998;9.832;2022-11-11T16:43:56;1.50;;;1.40;;
38123;SDS011;23934;47.998;9.832;2022-11-11T16:49:14;0.30;;;0.30;;
38123;SDS011;23934;47.998;9.832;2022-11-11T16:51:42;0.63;;;0.63;;
38123;SDS011;23934;47.998;9.832;2022-11-11T16:54:10;0.20;;;0.20;;
38123;SDS011;23934;47.998;9.832;2022-11-11T16:56:40;0.38;;;0.38;;
38123;SDS011;23934;47.998;9.832;2022-11-11T16:59:09;0.15;;;0.15;;
38123;SDS011;23934;47.998;9.832;2022-11-11T17:01:39;0.20;;;0.20;;
38123;SDS011;23934;47.998;9.832;2022-11-11T17:04:05;1.35;;;1.25;;
38123;SDS011;23934;47.998;9.832;2022-11-11T17:06:44;0.00;;;0.00;;
38123;SDS011;23934;47.998;9.832;2022-11-11T17:12:06;1.38;;;0.85;;
38123;SDS011;23934;47.998;9.832;2022-11-11T17:14:33;4.07;;;1.17;;
38123;SDS011;23934;47.998;9.832;2022-11-11T17:17:00;1.40;;;1.30;;
38123;SDS011;23934;47.998;9.832;2022-11-11T17:19:26;0.15;;;0.15;;
38123;SDS011;23934;47.998;9.832;2022-11-11T17:21:52;0.63;;;0.63;;
38123;SDS011;23934;47.998;9.832;2022-11-11T17:24:18;0.00;;;0.00;;
38123;SDS011;23934;47.998;9.832;2022-11-11T17:26:44;0.70;;;0.70;;
38123;SDS011;23934;47.998;9.832;2022-11-11T17:29:10;2.45;;;1.67;;
38123;SDS011;23934;47.998;9.832;2022-11-11T17:31:36;1.05;;;0.98;;